sensor_id;sensor_type;location;lat;lon;timestamp;pressure;altitude;pressure_sealevel;temperature;humidity
65173;BME280;69059;52.218;5.172;2023-05-07T00:00:26;98792.53;;;14.65;100.00
65173;BME280;69059;52.218;5.172;2023-05-07T00:02:54;98798.56;;;14.66;100.00
65173;BME280;69059;52.218;5.172;2023-05-07T00:05:22;98810.13;;;14.70;100.00
65173;BME280;69059;52.218;5.172;2023-05-07T00:07:50;98819.28;;;14.62;100.00
65173;BME280;69059;52.218;5.172;2023-05-07T00:10:19;98824.50;;;14.57;100.00
65173;BME280;69059;52.218;5.172;2023-05-07T00:12:47;98812.44;;;14.61;100.00
65173;BME280;69059;52.218;5.172;2023-05-07T00:15:16;98800.34;;;14.60;100.00
65173;BME280;69059;52.218;5.172;2023-05-07T00:17:43;98810.38;;;14.63;100.00
65173;BME280;69059;52.218;5.172;2023-05-07T00:20:11;98805.63;;;14.60;100.00
65173;BME280;69059;52.218;5.172;2023-05-07T00:22:39;98808.47;;;14.54;100.00
65173;BME280;69059;52.218;5.172;2023-05-07T00:25:07;98819.78;;;14.59;100.00
65173;BME280;69059;52.218;5.172;2023-05-07T00:27:36;98824.00;;;14.60;100.00
65173;BME280;69059;52.218;5.172;2023-05-07T00:30:05;98839.22;;;14.58;100.00
65173;BME280;69059;52.218;5.172;2023-05-07T00:32:35;98839.22;;;14.58;100.00
65173;BME280;69059;52.218;5.172;2023-05-07T00:35:03;98828.19;;;14.56;100.00
65173;BME280;69059;52.218;5.172;2023-05-07T00:37:31;98835.00;;;14.57;100.00
65173;BME280;69059;52.218;5.172;2023-05-07T00:39:59;98827.59;;;14.49;100.00
65173;BME280;69059;52.218;5.172;2023-05-07T00:42:29;98837.91;;;14.56;100.00
65173;BME280;69059;52.218;5.172;2023-05-07T00:44:58;98832.91;;;14.54;100.00
65173;BME280;69059;52.218;5.172;2023-05-07T00:47:26;98829.72;;;14.52;100.00
65173;BME280;69059;52.218;5.172;2023-05-07T00:49:56;98829.22;;;14.55;100.00
65173;BME280;69059;52.218;5.172;2023-05-07T00:52:25;98839.72;;;14.55;100.00
65173;BME280;69059;52.218;5.172;2023-05-07T00:54:53;98842.88;;;14.57;100.00
65173;BME280;69059;52.218;5.172;2023-05-07T00:57:21;98843.09;;;14.51;100.00
65173;BME280;69059;52.218;5.172;2023-05-07T00:59:51;98835.53;;;14.54;100.00
65173;BME280;69059;52.218;5.172;2023-05-07T01:02:19;98828.69;;;14.53;100.00
65173;BME280;69059;52.218;5.172;2023-05-07T01:04:47;98820.81;;;14.53;100.00
65173;BME280;69059;52.218;5.172;2023-05-07T01:07:16;98797.03;;;14.38;100.00
65173;BME280;69059;52.218;5.172;2023-05-07T01:09:44;98826.81;;;14.49;100.00
65173;BME280;69059;52.218;5.172;2023-05-07T01:12:12;98824.00;;;14.28;100.00
65173;BME280;69059;52.218;5.172;2023-05-07T01:14:40;98796.38;;;14.21;100.00
65173;BME280;69059;52.218;5.172;2023-05-07T01:17:08;98759.09;;;14.19;100.00
65173;BME280;69059;52.218;5.172;2023-05-07T01:19:36;98717.81;;;14.09;100.00
65173;BME280;69059;52.218;5.172;2023-05-07T01:22:08;98670.38;;;14.16;100.00
65173;BME280;69059;52.218;5.172;2023-05-07T01:24:38;98628.16;;;14.17;100.00
65173;BME280;69059;52.218;5.172;2023-05-07T01:27:06;98601.97;;;14.27;100.00
65173;BME280;69059;52.218;5.172;2023-05-07T01:29:33;98602.75;;;14.33;100.00
65173;BME280;69059;52.218;5.172;2023-05-07T01:32:02;98604.63;;;14.38;100.00
65173;BME280;69059;52.218;5.172;2023-05-07T01:34:32;98613.34;;;14.43;100.00
65173;BME280;69059;52.218;5.172;2023-05-07T01:37:01;98633.28;;;14.44;100.00
65173;BME280;69059;52.218;5.172;2023-05-07T01:39:30;98650.81;;;14.39;100.00
65173;BME280;69059;52.218;5.172;2023-05-07T01:41:59;98654.81;;;14.41;100.00
65173;BME280;69059;52.218;5.172;2023-05-07T01:44:28;98672.94;;;14.48;100.00
65173;BME280;69059;52.218;5.172;2023-05-07T01:46:56;98681.00;;;14.36;100.00
65173;BME280;69059;52.218;5.172;2023-05-07T01:49:25;98668.66;;;14.37;100.00
65173;BME280;69059;52.218;5.172;2023-05-07T01:51:52;98650.53;;;14.35;100.00
65173;BME280;69059;52.218;5.172;2023-05-07T01:54:25;98676.28;;;14.38;100.00
65173;BME280;69059;52.218;5.172;2023-05-07T01:56:55;98680.41;;;14.24;100.00
65173;BME280;69059;52.218;5.172;2023-05-07T01:59:24;98669.16;;;14.33;100.00
65173;BME280;69059;52.218;5.172;2023-05-07T02:01:52;98669.69;;;14.35;100.00
65173;BME280;69059;52.218;5.172;2023-05-07T02:04:20;98663.38;;;14.31;100.00
65173;BME280;69059;52.218;5.172;2023-05-07T02:06:48;98650.28;;;14.37;100.00
65173;BME280;69059;52.218;5.172;2023-05-07T02:09:16;98672.25;;;14.20;100.00
65173;BME280;69059;52.218;5.172;2023-05-07T02:11:44;98654.66;;;14.21;100.00
65173;BME280;69059;52.218;5.172;2023-05-07T02:14:11;98632.66;;;14.27;100.00
65173;BME280;69059;52.218;5.172;2023-05-07T02:16:41;98619.53;;;14.32;100.00
65173;BME280;69059;52.218;5.172;2023-05-07T02:19:08;98615.13;;;14.38;100.00
65173;BME280;69059;52.218;5.172;2023-05-07T02:21:36;98620.88;;;14.34;100.00
65173;BME280;69059;52.218;5.172;2023-05-07T02:24:04;98630.31;;;14.35;100.00
65173;BME280;69059;52.218;5.172;2023-05-07T02:26:32;98642.91;;;14.33;100.00
65173;BME280;69059;52.218;5.172;2023-05-07T02:29:00;98647.31;;;14.23;100.00
65173;BME280;69059;52.218;5.172;2023-05-07T02:31:28;98669.41;;;14.32;100.00
65173;BME280;69059;52.218;5.172;2023-05-07T02:33:57;98670.47;;;14.31;100.00
65173;BME280;69059;52.218;5.172;2023-05-07T02:36:25;98657.28;;;14.21;100.00
65173;BME280;69059;52.218;5.172;2023-05-07T02:38:53;98639.25;;;14.29;100.00
65173;BME280;69059;52.218;5.172;2023-05-07T02:41:21;98612.63;;;14.11;100.00
65173;BME280;69059;52.218;5.172;2023-05-07T02:43:48;98633.47;;;14.32;100.00
65173;BME280;69059;52.218;5.172;2023-05-07T02:46:16;98637.16;;;14.37;100.00
65173;BME280;69059;52.218;5.172;2023-05-07T02:48:44;98643.75;;;14.39;100.00
65173;BME280;69059;52.218;5.172;2023-05-07T02:51:13;98658.69;;;14.39;100.00
65173;BME280;69059;52.218;5.172;2023-05-07T02:53:41;98665.78;;;14.38;100.00
65173;BME280;69059;52.218;5.172;2023-05-07T02:56:09;98668.97;;;14.40;100.00
65173;BME280;69059;52.218;5.172;2023-05-07T02:58:37;98671.91;;;14.44;100.00
65173;BME280;69059;52.218;5.172;2023-05-07T03:01:05;98681.06;;;14.46;100.00
65173;BME280;69059;52.218;5.172;2023-05-07T03:03:33;98696.31;;;14.49;100.00
65173;BME280;69059;52.218;5.172;2023-05-07T03:06:01;98706.53;;;14.41;100.00
65173;BME280;69059;52.218;5.172;2023-05-07T03:08:30;98707.56;;;14.45;100.00
65173;BME280;69059;52.218;5.172;2023-05-07T03:10:58;98701.28;;;14.46;100.00
65173;BME280;69059;52.218;5.172;2023-05-07T03:13:26;98705.50;;;14.47;100.00
65173;BME280;69059;52.218;5.172;2023-05-07T03:15:54;98694.19;;;14.46;100.00
65173;BME280;69059;52.218;5.172;2023-05-07T03:18:21;98698.88;;;14.39;100.00
65173;BME280;69059;52.218;5.172;2023-05-07T03:20:51;98712.56;;;14.41;100.00
65173;BME280;69059;52.218;5.172;2023-05-07T03:23:19;98717.81;;;14.46;100.00
65173;BME280;69059;52.218;5.172;2023-05-07T03:25:51;98712.06;;;14.49;100.00
65173;BME280;69059;52.218;5.172;2023-05-07T03:28:19;98719.16;;;14.49;100.00
65173;BME280;69059;52.218;5.172;2023-05-07T03:30:46;98721.53;;;14.50;100.00
65173;BME280;69059;52.218;5.172;2023-05-07T03:33:14;98728.91;;;14.53;100.00
65173;BME280;69059;52.218;5.172;2023-05-07T03:35:42;98737.56;;;14.54;100.00
65173;BME280;69059;52.218;5.172;2023-05-07T03:38:10;98733.81;;;14.45;100.00
65173;BME280;69059;52.218;5.172;2023-05-07T03:40:37;98745.66;;;14.47;100.00
65173;BME280;69059;52.218;5.172;2023-05-07T03:43:06;98751.75;;;14.53;100.00
65173;BME280;69059;52.218;5.172;2023-05-07T03:45:34;98757.78;;;14.53;100.00
65173;BME280;69059;52.218;5.172;2023-05-07T03:48:02;98752.00;;;14.51;100.00
65173;BME280;69059;52.218;5.172;2023-05-07T03:50:30;98749.06;;;14.48;100.00
65173;BME280;69059;52.218;5.172;2023-05-07T03:52:58;98756.63;;;14.39;100.00
65173;BME280;69059;52.218;5.172;2023-05-07T03:55:25;98739.06;;;14.40;100.00
65173;BME280;69059;52.218;5.172;2023-05-07T03:57:53;98738.81;;;14.41;100.00
65173;BME280;69059;52.218;5.172;2023-05-07T04:00:24;98731.47;;;14.43;100.00
65173;BME280;69059;52.218;5.172;2023-05-07T04:02:52;98729.09;;;14.42;100.00
65173;BME280;69059;52.218;5.172;2023-05-07T04:05:19;98728.84;;;14.43;100.00
65173;BME280;69059;52.218;5.172;2023-05-07T04:07:47;98739.88;;;14.45;100.00
65173;BME280;69059;52.218;5.172;2023-05-07T04:10:15;98737.22;;;14.40;100.00
65173;BME280;69059;52.218;5.172;2023-05-07T04:12:42;98731.72;;;14.42;100.00
65173;BME280;69059;52.218;5.172;2023-05-07T04:15:10;98730.94;;;14.46;100.00
65173;BME280;69059;52.218;5.172;2023-05-07T04:17:39;98734.38;;;14.47;100.00
65173;BME280;69059;52.218;5.172;2023-05-07T04:20:09;98721.53;;;14.50;100.00
65173;BME280;69059;52.218;5.172;2023-05-07T04:22:37;98719.94;;;14.49;100.00
65173;BME280;69059;52.218;5.172;2023-05-07T04:25:05;98727.56;;;14.51;100.00
65173;BME280;69059;52.218;5.172;2023-05-07T04:27:34;98742.03;;;14.53;100.00
65173;BME280;69059;52.218;5.172;2023-05-07T04:30:02;98741.25;;;14.53;100.00
65173;BME280;69059;52.218;5.172;2023-05-07T04:32:30;98738.38;;;14.54;100.00
65173;BME280;69059;52.218;5.172;2023-05-07T04:34:59;98730.50;;;14.54;100.00
65173;BME280;69059;52.218;5.172;2023-05-07T04:37:27;98724.72;;;14.57;100.00
65173;BME280;69059;52.218;5.172;2023-05-07T04:39:55;98719.75;;;14.56;100.00
65173;BME280;69059;52.218;5.172;2023-05-07T04:42:22;98717.88;;;14.51;100.00
65173;BME280;69059;52.218;5.172;2023-05-07T04:44:52;98714.44;;;14.51;100.00
65173;BME280;69059;52.218;5.172;2023-05-07T04:47:21;98709.75;;;14.53;100.00
65173;BME280;69059;52.218;5.172;2023-05-07T04:49:48;98709.50;;;14.59;100.00
65173;BME280;69059;52.218;5.172;2023-05-07T04:52:17;98716.34;;;14.60;100.00
65173;BME280;69059;52.218;5.172;2023-05-07T04:54:45;98711.06;;;14.60;100.00
65173;BME280;69059;52.218;5.172;2023-05-07T04:57:13;98718.44;;;14.63;100.00
65173;BME280;69059;52.218;5.172;2023-05-07T04:59:41;98734.75;;;14.65;100.00
65173;BME280;69059;52.218;5.172;2023-05-07T05:02:09;98729.50;;;14.65;100.00
65173;BME280;69059;52.218;5.172;2023-05-07T05:04:37;98731.88;;;14.67;100.00
65173;BME280;69059;52.218;5.172;2023-05-07T05:07:05;98737.63;;;14.64;100.00
65173;BME280;69059;52.218;5.172;2023-05-07T05:09:34;98736.34;;;14.66;100.00
65173;BME280;69059;52.218;5.172;2023-05-07T05:12:02;98727.63;;;14.56;100.00
65173;BME280;69059;52.218;5.172;2023-05-07T05:14:30;98731.59;;;14.63;100.00
65173;BME280;69059;52.218;5.172;2023-05-07T05:16:57;98726.88;;;14.65;100.00
65173;BME280;69059;52.218;5.172;2023-05-07T05:19:25;98731.09;;;14.66;100.00
65173;BME280;69059;52.218;5.172;2023-05-07T05:21:53;98737.66;;;14.69;100.00
65173;BME280;69059;52.218;5.172;2023-05-07T05:24:20;98737.91;;;14.73;100.00
65173;BME280;69059;52.218;5.172;2023-05-07T05:26:49;98745.00;;;14.67;100.00
65173;BME280;69059;52.218;5.172;2023-05-07T05:29:17;98747.34;;;14.63;100.00
65173;BME280;69059;52.218;5.172;2023-05-07T05:31:44;98740.00;;;14.65;100.00
65173;BME280;69059;52.218;5.172;2023-05-07T05:34:12;98725.56;;;14.68;100.00
65173;BME280;69059;52.218;5.172;2023-05-07T05:36:40;98718.50;;;14.74;100.00
65173;BME280;69059;52.218;5.172;2023-05-07T05:39:08;98717.69;;;14.68;100.00
65173;BME280;69059;52.218;5.172;2023-05-07T05:41:36;98709.06;;;14.78;100.00
65173;BME280;69059;52.218;5.172;2023-05-07T05:44:05;98709.81;;;14.68;100.00
65173;BME280;69059;52.218;5.172;2023-05-07T05:46:32;98666.66;;;14.44;100.00
65173;BME280;69059;52.218;5.172;2023-05-07T05:49:02;98711.88;;;14.61;100.00
65173;BME280;69059;52.218;5.172;2023-05-07T05:51:30;98684.59;;;14.67;100.00
65173;BME280;69059;52.218;5.172;2023-05-07T05:53:58;98675.44;;;14.75;100.00
65173;BME280;69059;52.218;5.172;2023-05-07T05:56:25;98659.16;;;14.78;100.00
65173;BME280;69059;52.218;5.172;2023-05-07T05:58:53;98663.34;;;14.74;100.00
65173;BME280;69059;52.218;5.172;2023-05-07T06:01:22;98663.09;;;14.75;100.00
65173;BME280;69059;52.218;5.172;2023-05-07T06:03:50;98641.06;;;14.81;100.00
65173;BME280;69059;52.218;5.172;2023-05-07T06:06:18;98652.28;;;14.66;100.00
65173;BME280;69059;52.218;5.172;2023-05-07T06:08:46;98661.44;;;14.54;100.00
65173;BME280;69059;52.218;5.172;2023-05-07T06:11:13;98658.66;;;14.33;100.00
65173;BME280;69059;52.218;5.172;2023-05-07T06:13:41;98636.91;;;14.38;100.00
65173;BME280;69059;52.218;5.172;2023-05-07T06:16:09;98613.28;;;14.38;100.00
65173;BME280;69059;52.218;5.172;2023-05-07T06:18:38;98560.59;;;14.50;100.00
65173;BME280;69059;52.218;5.172;2023-05-07T06:21:06;98503.38;;;14.72;100.00
65173;BME280;69059;52.218;5.172;2023-05-07T06:23:33;98485.78;;;14.73;100.00
65173;BME280;69059;52.218;5.172;2023-05-07T06:26:01;98480.28;;;14.64;100.00
65173;BME280;69059;52.218;5.172;2023-05-07T06:28:29;98470.56;;;14.64;100.00
65173;BME280;69059;52.218;5.172;2023-05-07T06:31:12;98452.72;;;14.66;100.00
65173;BME280;69059;52.218;5.172;2023-05-07T06:33:41;98452.44;;;14.78;100.00
65173;BME280;69059;52.218;5.172;2023-05-07T06:36:09;98436.16;;;14.86;100.00
65173;BME280;69059;52.218;5.172;2023-05-07T06:38:37;98428.00;;;14.98;100.00
65173;BME280;69059;52.218;5.172;2023-05-07T06:41:05;98431.16;;;14.95;100.00
65173;BME280;69059;52.218;5.172;2023-05-07T06:43:33;98429.06;;;15.07;100.00
65173;BME280;69059;52.218;5.172;2023-05-07T06:46:01;98402.19;;;15.20;100.00
65173;BME280;69059;52.218;5.172;2023-05-07T06:48:29;98383.56;;;15.17;100.00
65173;BME280;69059;52.218;5.172;2023-05-07T06:50:58;98397.94;;;15.34;100.00
65173;BME280;69059;52.218;5.172;2023-05-07T06:53:26;98391.06;;;15.49;100.00
65173;BME280;69059;52.218;5.172;2023-05-07T06:55:54;98396.31;;;15.54;100.00
65173;BME280;69059;52.218;5.172;2023-05-07T06:58:22;98388.94;;;15.61;100.00
65173;BME280;69059;52.218;5.172;2023-05-07T07:00:50;98398.69;;;15.60;100.00
65173;BME280;69059;52.218;5.172;2023-05-07T07:03:17;98388.88;;;15.76;100.00
65173;BME280;69059;52.218;5.172;2023-05-07T07:05:45;98402.84;;;15.71;100.00
65173;BME280;69059;52.218;5.172;2023-05-07T07:08:14;98385.75;;;15.74;100.00
65173;BME280;69059;52.218;5.172;2023-05-07T07:10:44;98397.31;;;15.78;100.00
65173;BME280;69059;52.218;5.172;2023-05-07T07:13:11;98413.09;;;15.78;100.00
65173;BME280;69059;52.218;5.172;2023-05-07T07:15:40;98408.69;;;15.63;100.00
65173;BME280;69059;52.218;5.172;2023-05-07T07:18:08;98411.41;;;15.97;100.00
65173;BME280;69059;52.218;5.172;2023-05-07T07:20:35;98410.06;;;16.00;100.00
65173;BME280;69059;52.218;5.172;2023-05-07T07:23:03;98407.63;;;16.13;100.00
65173;BME280;69059;52.218;5.172;2023-05-07T07:25:32;98421.84;;;16.12;100.00
65173;BME280;69059;52.218;5.172;2023-05-07T07:28:00;98418.50;;;16.41;100.00
65173;BME280;69059;52.218;5.172;2023-05-07T07:30:28;98415.78;;;16.56;100.00
65173;BME280;69059;52.218;5.172;2023-05-07T07:32:55;98436.28;;;16.59;100.00
65173;BME280;69059;52.218;5.172;2023-05-07T07:35:28;98481.97;;;16.39;100.00
65173;BME280;69059;52.218;5.172;2023-05-07T07:37:56;98496.72;;;16.40;100.00
65173;BME280;69059;52.218;5.172;2023-05-07T07:40:24;98511.34;;;16.62;100.00
65173;BME280;69059;52.218;5.172;2023-05-07T07:42:53;98531.88;;;16.60;100.00
65173;BME280;69059;52.218;5.172;2023-05-07T07:45:22;98561.44;;;16.52;100.00
65173;BME280;69059;52.218;5.172;2023-05-07T07:47:49;98572.03;;;16.41;100.00
65173;BME280;69059;52.218;5.172;2023-05-07T07:50:17;98573.56;;;16.47;100.00
65173;BME280;69059;52.218;5.172;2023-05-07T07:53:01;98573.78;;;16.61;100.00
65173;BME280;69059;52.218;5.172;2023-05-07T07:55:29;98564.75;;;16.77;100.00
65173;BME280;69059;52.218;5.172;2023-05-07T07:57:59;98565.03;;;16.76;100.00
65173;BME280;69059;52.218;5.172;2023-05-07T08:00:26;98571.34;;;16.75;100.00
65173;BME280;69059;52.218;5.172;2023-05-07T08:02:54;98577.91;;;16.82;100.00
65173;BME280;69059;52.218;5.172;2023-05-07T08:05:22;98589.78;;;16.75;100.00
65173;BME280;69059;52.218;5.172;2023-05-07T08:07:50;98617.25;;;16.64;100.00
65173;BME280;69059;52.218;5.172;2023-05-07T08:10:20;98633.25;;;16.82;100.00
65173;BME280;69059;52.218;5.172;2023-05-07T08:12:48;98620.03;;;16.88;100.00
65173;BME280;69059;52.218;5.172;2023-05-07T08:15:17;98649.38;;;16.71;100.00
65173;BME280;69059;52.218;5.172;2023-05-07T08:17:45;98629.22;;;16.95;100.00
65173;BME280;69059;52.218;5.172;2023-05-07T08:20:13;98654.34;;;16.82;100.00
65173;BME280;69059;52.218;5.172;2023-05-07T08:22:41;98637.34;;;16.99;100.00
65173;BME280;69059;52.218;5.172;2023-05-07T08:25:09;98656.84;;;17.03;100.00
65173;BME280;69059;52.218;5.172;2023-05-07T08:27:36;98694.34;;;16.90;100.00
65173;BME280;69059;52.218;5.172;2023-05-07T08:30:05;98733.97;;;16.54;100.00
65173;BME280;69059;52.218;5.172;2023-05-07T08:32:35;98711.47;;;16.87;100.00
65173;BME280;69059;52.218;5.172;2023-05-07T08:35:03;98700.06;;;17.07;100.00
65173;BME280;69059;52.218;5.172;2023-05-07T08:37:31;98674.06;;;17.34;100.00
65173;BME280;69059;52.218;5.172;2023-05-07T08:39:59;98703.72;;;17.11;100.00
65173;BME280;69059;52.218;5.172;2023-05-07T08:42:28;98703.63;;;17.26;100.00
65173;BME280;69059;52.218;5.172;2023-05-07T08:44:57;98693.03;;;17.36;100.00
65173;BME280;69059;52.218;5.172;2023-05-07T08:47:31;98726.28;;;17.32;100.00
65173;BME280;69059;52.218;5.172;2023-05-07T08:50:03;98717.44;;;17.57;100.00
65173;BME280;69059;52.218;5.172;2023-05-07T08:52:32;98753.47;;;17.28;100.00
65173;BME280;69059;52.218;5.172;2023-05-07T08:55:00;98746.59;;;17.76;100.00
65173;BME280;69059;52.218;5.172;2023-05-07T08:57:29;98761.25;;;17.97;100.00
65173;BME280;69059;52.218;5.172;2023-05-07T08:59:57;98806.22;;;17.82;100.00
65173;BME280;69059;52.218;5.172;2023-05-07T09:02:25;98851.25;;;17.41;100.00
65173;BME280;69059;52.218;5.172;2023-05-07T09:04:53;98888.28;;;17.16;100.00
65173;BME280;69059;52.218;5.172;2023-05-07T09:07:22;98813.31;;;17.86;100.00
65173;BME280;69059;52.218;5.172;2023-05-07T09:09:50;98753.31;;;18.55;100.00
65173;BME280;69059;52.218;5.172;2023-05-07T09:12:17;98732.75;;;19.18;100.00
65173;BME280;69059;52.218;5.172;2023-05-07T09:14:45;98798.94;;;19.37;100.00
65173;BME280;69059;52.218;5.172;2023-05-07T09:17:13;98872.66;;;19.67;100.00
65173;BME280;69059;52.218;5.172;2023-05-07T09:19:43;98946.38;;;19.79;100.00
65173;BME280;69059;52.218;5.172;2023-05-07T09:22:12;98981.56;;;19.80;100.00
65173;BME280;69059;52.218;5.172;2023-05-07T09:24:47;99077.81;;;19.36;100.00
65173;BME280;69059;52.218;5.172;2023-05-07T09:27:15;99072.25;;;19.66;100.00
65173;BME280;69059;52.218;5.172;2023-05-07T09:29:43;99135.53;;;19.29;100.00
65173;BME280;69059;52.218;5.172;2023-05-07T09:32:11;99167.31;;;18.85;100.00
65173;BME280;69059;52.218;5.172;2023-05-07T09:34:39;99048.31;;;19.19;100.00
65173;BME280;69059;52.218;5.172;2023-05-07T09:37:08;99178.88;;;18.99;100.00
65173;BME280;69059;52.218;5.172;2023-05-07T09:39:41;99193.84;;;18.49;100.00
65173;BME280;69059;52.218;5.172;2023-05-07T09:42:10;99134.72;;;19.00;100.00
65173;BME280;69059;52.218;5.172;2023-05-07T09:44:43;99072.91;;;19.53;100.00
65173;BME280;69059;52.218;5.172;2023-05-07T09:47:24;99099.38;;;19.82;100.00
65173;BME280;69059;52.218;5.172;2023-05-07T09:49:56;99158.94;;;19.51;100.00
65173;BME280;69059;52.218;5.172;2023-05-07T09:52:25;99154.47;;;19.80;100.00
65173;BME280;69059;52.218;5.172;2023-05-07T09:54:57;99110.50;;;20.32;100.00
65173;BME280;69059;52.218;5.172;2023-05-07T09:57:30;99120.38;;;20.69;100.00
65173;BME280;69059;52.218;5.172;2023-05-07T10:00:01;99214.16;;;20.54;100.00
65173;BME280;69059;52.218;5.172;2023-05-07T10:02:31;99241.81;;;20.48;100.00
65173;BME280;69059;52.218;5.172;2023-05-07T10:05:06;99348.94;;;20.08;100.00
65173;BME280;69059;52.218;5.172;2023-05-07T10:07:51;99336.66;;;20.17;100.00
65173;BME280;69059;52.218;5.172;2023-05-07T10:13:55;99275.31;;;20.87;100.00
65173;BME280;69059;52.218;5.172;2023-05-07T10:16:49;99314.72;;;20.98;100.00
65173;BME280;69059;52.218;5.172;2023-05-07T10:20:00;99378.50;;;20.88;100.00
65173;BME280;69059;52.218;5.172;2023-05-07T10:22:47;99485.28;;;20.21;100.00
65173;BME280;69059;52.218;5.172;2023-05-07T10:25:56;99451.31;;;19.84;100.00
65173;BME280;69059;52.218;5.172;2023-05-07T10:38:34;99431.38;;;21.03;100.00
65173;BME280;69059;52.218;5.172;2023-05-07T10:45:28;99389.75;;;21.52;100.00
65173;BME280;69059;52.218;5.172;2023-05-07T10:48:23;99515.00;;;21.01;100.00
65173;BME280;69059;52.218;5.172;2023-05-07T10:51:30;99540.31;;;21.17;100.00
65173;BME280;69059;52.218;5.172;2023-05-07T10:54:21;99484.75;;;21.55;100.00
65173;BME280;69059;52.218;5.172;2023-05-07T10:56:52;99576.69;;;20.78;100.00
65173;BME280;69059;52.218;5.172;2023-05-07T10:59:36;99561.47;;;20.93;100.00
65173;BME280;69059;52.218;5.172;2023-05-07T11:02:15;99602.25;;;20.63;100.00
65173;BME280;69059;52.218;5.172;2023-05-07T11:05:41;99638.13;;;20.46;100.00
65173;BME280;69059;52.218;5.172;2023-05-07T11:08:55;99593.72;;;20.66;100.00
65173;BME280;69059;52.218;5.172;2023-05-07T11:11:46;99584.34;;;20.89;100.00
65173;BME280;69059;52.218;5.172;2023-05-07T11:14:43;99601.03;;;21.29;100.00
65173;BME280;69059;52.218;5.172;2023-05-07T11:17:14;99620.81;;;21.07;100.00
65173;BME280;69059;52.218;5.172;2023-05-07T11:20:03;99545.47;;;21.90;100.00
65173;BME280;69059;52.218;5.172;2023-05-07T11:22:36;99699.69;;;21.41;100.00
65173;BME280;69059;52.218;5.172;2023-05-07T11:25:06;99732.59;;;20.91;100.00
65173;BME280;69059;52.218;5.172;2023-05-07T11:27:36;99727.84;;;20.88;100.00
65173;BME280;69059;52.218;5.172;2023-05-07T11:30:05;99752.28;;;20.80;100.00
65173;BME280;69059;52.218;5.172;2023-05-07T11:32:32;99678.75;;;21.39;100.00
65173;BME280;69059;52.218;5.172;2023-05-07T11:35:00;99787.50;;;20.95;100.00
65173;BME280;69059;52.218;5.172;2023-05-07T11:37:28;99855.41;;;20.91;100.00
65173;BME280;69059;52.218;5.172;2023-05-07T11:40:06;99852.44;;;21.23;100.00
65173;BME280;69059;52.218;5.172;2023-05-07T11:42:38;99815.78;;;21.74;100.00
65173;BME280;69059;52.218;5.172;2023-05-07T11:45:07;99860.69;;;21.76;100.00
65173;BME280;69059;52.218;5.172;2023-05-07T11:47:36;99886.66;;;21.79;100.00
65173;BME280;69059;52.218;5.172;2023-05-07T11:50:06;99823.09;;;22.56;100.00
65173;BME280;69059;52.218;5.172;2023-05-07T11:52:35;99770.38;;;23.48;100.00
65173;BME280;69059;52.218;5.172;2023-05-07T11:55:06;99957.47;;;23.40;100.00
65173;BME280;69059;52.218;5.172;2023-05-07T11:57:34;100073.56;;;23.70;100.00
65173;BME280;69059;52.218;5.172;2023-05-07T12:00:05;100108.31;;;23.88;100.00
65173;BME280;69059;52.218;5.172;2023-05-07T12:02:33;100252.28;;;23.44;100.00
65173;BME280;69059;52.218;5.172;2023-05-07T12:05:01;100180.31;;;23.83;100.00
65173;BME280;69059;52.218;5.172;2023-05-07T12:07:29;100191.13;;;24.45;100.00
65173;BME280;69059;52.218;5.172;2023-05-07T12:09:58;100257.53;;;24.22;100.00
65173;BME280;69059;52.218;5.172;2023-05-07T12:12:26;100376.28;;;24.15;100.00
65173;BME280;69059;52.218;5.172;2023-05-07T12:14:54;100334.09;;;24.51;100.00
65173;BME280;69059;52.218;5.172;2023-05-07T12:17:23;100495.78;;;24.08;100.00
65173;BME280;69059;52.218;5.172;2023-05-07T12:19:51;100530.31;;;23.79;100.00
65173;BME280;69059;52.218;5.172;2023-05-07T12:22:20;100563.97;;;22.73;100.00
65173;BME280;69059;52.218;5.172;2023-05-07T12:24:49;100585.31;;;23.09;100.00
65173;BME280;69059;52.218;5.172;2023-05-07T12:27:17;100558.63;;;23.49;100.00
65173;BME280;69059;52.218;5.172;2023-05-07T12:29:47;100568.22;;;22.64;100.00
65173;BME280;69059;52.218;5.172;2023-05-07T12:32:16;100432.28;;;22.76;100.00
65173;BME280;69059;52.218;5.172;2023-05-07T12:34:46;100195.72;;;23.57;100.00
65173;BME280;69059;52.218;5.172;2023-05-07T12:37:14;100161.75;;;24.02;100.00
65173;BME280;69059;52.218;5.172;2023-05-07T12:39:47;100329.09;;;23.76;100.00
65173;BME280;69059;52.218;5.172;2023-05-07T12:42:16;100334.59;;;23.46;100.00
65173;BME280;69059;52.218;5.172;2023-05-07T12:44:46;100248.53;;;23.84;100.00
65173;BME280;69059;52.218;5.172;2023-05-07T12:47:14;100350.31;;;22.58;100.00
65173;BME280;69059;52.218;5.172;2023-05-07T12:49:43;100351.94;;;22.48;100.00
65173;BME280;69059;52.218;5.172;2023-05-07T12:52:13;100288.63;;;22.50;100.00
65173;BME280;69059;52.218;5.172;2023-05-07T12:54:41;100203.16;;;22.72;100.00
65173;BME280;69059;52.218;5.172;2023-05-07T12:57:09;100171.47;;;23.20;100.00
65173;BME280;69059;52.218;5.172;2023-05-07T12:59:40;100258.91;;;22.23;100.00
65173;BME280;69059;52.218;5.172;2023-05-07T13:02:08;100110.94;;;23.02;100.00
65173;BME280;69059;52.218;5.172;2023-05-07T13:04:36;100179.78;;;23.13;100.00
65173;BME280;69059;52.218;5.172;2023-05-07T13:07:05;100295.34;;;22.07;100.00
65173;BME280;69059;52.218;5.172;2023-05-07T13:09:34;100196.22;;;21.71;100.00
65173;BME280;69059;52.218;5.172;2023-05-07T13:12:03;100196.44;;;22.10;100.00
65173;BME280;69059;52.218;5.172;2023-05-07T13:14:32;100190.06;;;21.96;100.00
65173;BME280;69059;52.218;5.172;2023-05-07T13:17:00;100179.63;;;22.30;100.00
65173;BME280;69059;52.218;5.172;2023-05-07T13:19:27;100154.81;;;22.55;100.00